Aeroporto :
LOGIN :

Iscrizione | Disclaimer

   EN    FR    IT 

 










Sommario :    VFR   VFR Marginale   IFR   IFR Intensivo   IFR Molto Intensivo
Visibilità : 
Base nubi : 
>= 8 km
>= 3000ft
5 / 8 km
1000 / 3000 ft
1500m / 5 km
500 / 1000 ft
800 / 1500m
200 / 500 ft
< 800m
< 200 ft
Simboli :   Temporali  Nebbia  Neve Forte  Precipitazioni Forti  Vento > 20 kt
SIGMETs :   Varie  Temporali  Ghiacco  Turbolenza  Onda orograficha  Ceneri Vulcaniche







- Altitudine del aeroporto : 505 ft
- Codice IATA : SXB
- Carte del aeroporto


LFST - Strasbourg

ULTIMO METAR :
  • 202300Z AUTO 32003KT 7000 NSC M01/M02 Q1008 BECMG 4000 BR BKN003

METARs OBSOLETI :
  • 202230Z AUTO VRB02KT 8000 NSC M00/M02 Q1008 BECMG 4000 BR BKN003
  • 202200Z AUTO VRB02KT 7000 NSC 01/M01 Q1008 BECMG 4000 BR
  • 202130Z AUTO VRB02KT 8000 NSC 02/M01 Q1009 BECMG 4000 BR
  • 202100Z AUTO VRB02KT 8000 NSC 02/M01 Q1008 BECMG 4000 BR
  • 202030Z AUTO 17001KT 8000 NSC 01/M01 Q1008 BECMG 4000 BR

TAF TAF LFST
Valido dal 20 a 18 ore il 21 a 18 ore UTC


201700Z 2018/2118 VRB03KT CAVOK
BECMG 2022/2024 4000 BR
BECMG 2100/2103 BKN003
BECMG 2105/2108 7000 NSW BKN008
BECMG 2108/2111 NSC
Nessun NOTAM noto per questo aeroporto.



MetMap, La meteo Aeronautica in un colpo d'occhio ! - Copyright ORBIFLY Dicembre 2007 - Disclaimer

ORBIFLY MET'MAP TEAM :

Programmazione e sviluppo : Alexandra Zaïnal
Concezione e sviluppo : Baudouin d'Aumeries
Co-Programmazione e sviluppo : Marc-Olivier Méhu
Supporto tecnico e logistico : Manuel Goepfert
Aiuto per la traduzione : Arnaldo La Scala

Contatto : metmap@orbifly.com




FONTI E CREDITI :

   NOAA